createdAt,value
2022-11-15T00:00:35.062Z,24.86
2022-11-15T00:01:05.069Z,24.79
2022-11-15T00:01:35.092Z,24.79
2022-11-15T00:02:05.182Z,24.84
2022-11-15T00:02:35.199Z,24.85
2022-11-15T00:03:05.170Z,24.82
2022-11-15T00:03:35.352Z,24.81
2022-11-15T00:04:05.482Z,24.85
2022-11-15T00:04:35.458Z,24.85
2022-11-15T00:05:05.431Z,24.84
2022-11-15T00:05:35.392Z,24.89
2022-11-15T00:06:05.372Z,24.86
2022-11-15T00:06:35.344Z,24.86
2022-11-15T00:07:05.333Z,24.86
2022-11-15T00:07:54.759Z,24.89
2022-11-15T00:08:10.280Z,24.89
2022-11-15T00:08:40.276Z,24.93
2022-11-15T00:09:10.244Z,24.91
2022-11-15T00:09:44.875Z,24.93
2022-11-15T00:10:15.132Z,24.91
2022-11-15T00:10:45.095Z,24.91
2022-11-15T00:11:15.073Z,24.86
2022-11-15T00:11:45.085Z,24.86
2022-11-15T00:12:15.064Z,24.85
2022-11-15T00:12:45.091Z,24.86
2022-11-15T00:13:15.061Z,24.89
2022-11-15T00:13:45.054Z,24.90
2022-11-15T00:14:15.053Z,24.89
2022-11-15T00:14:45.027Z,24.90
2022-11-15T00:15:14.999Z,24.86
2022-11-15T00:15:44.971Z,24.91
2022-11-15T00:16:14.974Z,24.90
2022-11-15T00:16:44.930Z,24.89
2022-11-15T00:17:14.894Z,24.89
2022-11-15T00:17:44.868Z,24.94
2022-11-15T00:18:14.841Z,24.91
2022-11-15T00:18:50.340Z,24.93
2022-11-15T00:19:19.833Z,24.91
2022-11-15T00:19:49.795Z,24.90
2022-11-15T00:20:19.778Z,24.89
2022-11-15T00:20:49.754Z,24.90
2022-11-15T00:21:19.739Z,24.90
2022-11-15T00:21:49.707Z,24.86
2022-11-15T00:22:19.717Z,24.85
2022-11-15T00:22:49.702Z,24.90
2022-11-15T00:23:19.679Z,24.91
2022-11-15T00:23:49.646Z,24.93
2022-11-15T00:24:19.629Z,24.96
2022-11-15T00:24:49.621Z,24.94
2022-11-15T00:25:19.619Z,24.89
2022-11-15T00:25:49.623Z,24.91
2022-11-15T00:26:19.598Z,24.94
2022-11-15T00:26:49.570Z,24.96
2022-11-15T00:27:19.564Z,24.96
2022-11-15T00:27:49.537Z,24.93
2022-11-15T00:28:19.530Z,24.91
2022-11-15T00:28:49.490Z,24.89
2022-11-15T00:29:19.468Z,24.86
2022-11-15T00:29:49.442Z,24.86
2022-11-15T00:30:19.415Z,24.89
2022-11-15T00:30:49.402Z,24.97
2022-11-15T00:31:19.393Z,24.97
2022-11-15T00:31:49.391Z,24.97
2022-11-15T00:32:19.358Z,24.94
2022-11-15T00:32:49.323Z,24.96
2022-11-15T00:33:19.288Z,24.94
2022-11-15T00:33:49.264Z,24.93
2022-11-15T00:34:19.245Z,24.96
2022-11-15T00:34:49.215Z,24.97
2022-11-15T00:35:19.179Z,24.97
2022-11-15T00:35:49.139Z,24.97
2022-11-15T00:36:19.121Z,24.93
2022-11-15T00:36:49.107Z,24.89
2022-11-15T00:37:19.080Z,24.82
2022-11-15T00:37:49.053Z,24.79
2022-11-15T00:38:19.033Z,24.79
2022-11-15T00:38:49.136Z,24.81
2022-11-15T00:39:19.128Z,24.82
2022-11-15T00:39:49.116Z,24.85
2022-11-15T00:40:19.115Z,24.91
2022-11-15T00:40:49.098Z,24.93
2022-11-15T00:41:19.075Z,24.93
2022-11-15T00:41:49.046Z,24.91
2022-11-15T00:42:19.024Z,24.91
2022-11-15T00:42:49.015Z,24.91
2022-11-15T00:43:18.979Z,24.90
2022-11-15T00:43:48.946Z,24.90
2022-11-15T00:44:18.956Z,24.86
2022-11-15T00:44:48.954Z,24.90
2022-11-15T00:45:19.091Z,24.93
2022-11-15T00:45:49.055Z,24.94
2022-11-15T00:46:19.066Z,24.90
2022-11-15T00:46:49.056Z,24.84
2022-11-15T00:47:19.029Z,24.82
2022-11-15T00:47:48.992Z,24.86
2022-11-15T00:48:18.963Z,24.85
2022-11-15T00:48:48.981Z,24.86
2022-11-15T00:49:18.955Z,24.86
2022-11-15T00:49:48.937Z,24.89
2022-11-15T00:50:18.912Z,24.89
2022-11-15T00:50:48.877Z,24.90
2022-11-15T00:51:18.851Z,24.90
2022-11-15T00:51:48.820Z,24.93
2022-11-15T00:52:18.803Z,24.89
2022-11-15T00:52:48.776Z,24.86
2022-11-15T00:53:18.748Z,24.81
2022-11-15T00:53:48.713Z,24.81
2022-11-15T00:54:18.685Z,24.84
2022-11-15T00:54:48.670Z,24.84
2022-11-15T00:55:18.656Z,24.84
2022-11-15T00:55:48.621Z,24.81
2022-11-15T00:56:18.585Z,24.79
2022-11-15T00:56:48.556Z,24.85
2022-11-15T00:57:18.540Z,24.85
2022-11-15T00:57:48.516Z,24.84
2022-11-15T00:58:18.487Z,24.84
2022-11-15T00:58:48.451Z,24.86
2022-11-15T00:59:18.425Z,24.89
2022-11-15T00:59:48.389Z,24.89
2022-11-15T01:00:18.368Z,24.85
2022-11-15T01:00:48.414Z,24.86
2022-11-15T01:01:18.492Z,24.85
2022-11-15T01:01:48.518Z,24.89
2022-11-15T01:02:18.517Z,24.86
2022-11-15T01:02:48.495Z,24.85
2022-11-15T01:03:18.475Z,24.85
2022-11-15T01:03:48.438Z,24.89
2022-11-15T01:04:18.411Z,24.86
2022-11-15T01:04:48.403Z,24.85
2022-11-15T01:05:18.371Z,24.84
2022-11-15T01:05:48.377Z,24.85
2022-11-15T01:06:18.369Z,24.82
2022-11-15T01:06:48.444Z,24.85
2022-11-15T01:07:18.491Z,24.85
2022-11-15T01:07:48.477Z,24.85
2022-11-15T01:08:18.493Z,24.86
2022-11-15T01:08:48.474Z,24.89
2022-11-15T01:09:18.448Z,24.85
2022-11-15T01:09:48.437Z,24.86
2022-11-15T01:10:18.445Z,24.82
2022-11-15T01:10:48.433Z,24.81
2022-11-15T01:11:18.403Z,24.81
2022-11-15T01:11:48.378Z,24.82
2022-11-15T01:12:18.357Z,24.82
2022-11-15T01:12:48.337Z,24.81
2022-11-15T01:13:18.299Z,24.79
2022-11-15T01:13:48.270Z,24.78
2022-11-15T01:14:22.841Z,24.79
2022-11-15T01:14:53.179Z,24.76
2022-11-15T01:15:23.151Z,24.75
2022-11-15T01:15:53.121Z,24.75
2022-11-15T01:16:23.083Z,24.78
2022-11-15T01:16:53.046Z,24.81
2022-11-15T01:17:23.041Z,24.81
2022-11-15T01:17:53.029Z,24.81
2022-11-15T01:18:23.012Z,24.79
2022-11-15T01:18:52.980Z,24.78
2022-11-15T01:19:22.988Z,24.78
2022-11-15T01:19:52.976Z,24.79
2022-11-15T01:20:22.937Z,24.78
2022-11-15T01:20:53.090Z,24.78
2022-11-15T01:21:23.095Z,24.76
2022-11-15T01:21:53.084Z,24.81
2022-11-15T01:22:23.058Z,24.81
2022-11-15T01:22:53.029Z,24.81
2022-11-15T01:23:23.015Z,24.79
2022-11-15T01:23:52.985Z,24.79
2022-11-15T01:24:22.956Z,24.81
2022-11-15T01:24:52.924Z,24.82
2022-11-15T01:25:22.896Z,24.81
2022-11-15T01:25:52.876Z,24.82
2022-11-15T01:26:22.843Z,24.81
2022-11-15T01:26:52.822Z,24.78
2022-11-15T01:27:22.853Z,24.75
2022-11-15T01:27:52.819Z,24.75
2022-11-15T01:28:22.818Z,24.75
2022-11-15T01:28:52.791Z,24.74
2022-11-15T01:29:22.784Z,24.75
2022-11-15T01:29:52.748Z,24.79
2022-11-15T01:30:22.739Z,24.78
2022-11-15T01:30:52.713Z,24.78
2022-11-15T01:31:22.689Z,24.78
2022-11-15T01:31:52.663Z,24.81
2022-11-15T01:32:22.673Z,24.84
2022-11-15T01:32:52.676Z,24.84
2022-11-15T01:33:22.636Z,24.82
2022-11-15T01:33:52.614Z,24.81
2022-11-15T01:34:22.595Z,24.76
2022-11-15T01:34:52.588Z,24.71
2022-11-15T01:35:22.561Z,24.66
2022-11-15T01:35:52.536Z,24.74
2022-11-15T01:36:22.508Z,24.71
2022-11-15T01:36:52.483Z,24.70
2022-11-15T01:37:22.479Z,24.71
2022-11-15T01:37:52.450Z,24.75
2022-11-15T01:38:22.424Z,24.74
2022-11-15T01:38:52.385Z,24.70
2022-11-15T01:39:22.395Z,24.70
2022-11-15T01:39:52.370Z,24.75
2022-11-15T01:40:22.351Z,24.79
2022-11-15T01:40:52.318Z,24.81
2022-11-15T01:41:22.330Z,24.75
2022-11-15T01:41:52.302Z,24.74
2022-11-15T01:42:22.273Z,24.76
2022-11-15T01:42:52.246Z,24.76
2022-11-15T01:43:22.220Z,24.76
2022-11-15T01:43:52.201Z,24.78
2022-11-15T01:44:22.179Z,24.79
2022-11-15T01:44:52.167Z,24.84
2022-11-15T01:45:22.137Z,24.84
2022-11-15T01:45:52.129Z,24.84
2022-11-15T01:46:22.112Z,24.82
2022-11-15T01:46:52.082Z,24.79
2022-11-15T01:47:22.066Z,24.76
2022-11-15T01:47:52.029Z,24.75
2022-11-15T01:48:22.039Z,24.76
2022-11-15T01:48:52.007Z,24.78
2022-11-15T01:49:21.980Z,24.76
2022-11-15T01:49:51.976Z,24.76
2022-11-15T01:50:21.957Z,24.75
2022-11-15T01:50:51.949Z,24.75
2022-11-15T01:51:21.954Z,24.75
2022-11-15T01:51:51.966Z,24.74
2022-11-15T01:52:21.929Z,24.71
2022-11-15T01:52:51.907Z,24.74
2022-11-15T01:53:21.876Z,24.70
2022-11-15T01:53:51.848Z,24.68
2022-11-15T01:54:21.825Z,24.70
2022-11-15T01:54:51.812Z,24.68
2022-11-15T01:55:21.799Z,24.70
2022-11-15T01:55:51.819Z,24.68
2022-11-15T01:56:21.847Z,24.74
2022-11-15T01:56:51.807Z,24.75
2022-11-15T01:57:21.810Z,24.75
2022-11-15T01:57:51.843Z,24.74
2022-11-15T01:58:21.864Z,24.70
2022-11-15T01:58:51.855Z,24.68
2022-11-15T01:59:21.843Z,24.66
2022-11-15T01:59:51.819Z,24.74
2022-11-15T02:00:21.788Z,24.78
2022-11-15T02:00:51.823Z,24.76
2022-11-15T02:01:21.839Z,24.75
2022-11-15T02:01:51.828Z,24.78
2022-11-15T02:02:21.785Z,24.78
2022-11-15T02:02:51.765Z,24.79
2022-11-15T02:03:21.770Z,24.79
2022-11-15T02:03:51.777Z,24.81
2022-11-15T02:04:21.751Z,24.82
2022-11-15T02:04:51.734Z,24.81
2022-11-15T02:05:21.695Z,24.76
2022-11-15T02:05:51.664Z,24.74
2022-11-15T02:06:21.644Z,24.74
2022-11-15T02:06:51.776Z,24.74
2022-11-15T02:07:21.820Z,24.71
2022-11-15T02:07:51.787Z,24.75
2022-11-15T02:08:21.801Z,24.75
2022-11-15T02:08:51.779Z,24.78
2022-11-15T02:09:21.786Z,24.78
2022-11-15T02:09:51.762Z,24.78
2022-11-15T02:10:21.727Z,24.76
2022-11-15T02:10:51.699Z,24.75
2022-11-15T02:11:21.671Z,24.74
2022-11-15T02:11:51.663Z,24.71
2022-11-15T02:12:21.644Z,24.74
2022-11-15T02:12:51.615Z,24.76
2022-11-15T02:13:21.599Z,24.78
2022-11-15T02:13:51.572Z,24.79
2022-11-15T02:14:21.548Z,24.81
2022-11-15T02:14:51.523Z,24.79
2022-11-15T02:15:21.493Z,24.78
2022-11-15T02:15:51.475Z,24.78
2022-11-15T02:16:21.445Z,24.76
2022-11-15T02:16:51.454Z,24.79
2022-11-15T02:17:21.425Z,24.81
2022-11-15T02:17:51.400Z,24.81
2022-11-15T02:18:21.372Z,24.81
2022-11-15T02:18:51.339Z,24.82
2022-11-15T02:19:21.331Z,24.82
2022-11-15T02:19:51.315Z,24.82
2022-11-15T02:20:21.284Z,24.78
2022-11-15T02:20:51.280Z,24.79
2022-11-15T02:21:21.265Z,24.78
2022-11-15T02:21:51.259Z,24.78
2022-11-15T02:22:21.230Z,24.78
2022-11-15T02:22:51.194Z,24.76
2022-11-15T02:23:21.164Z,24.82
2022-11-15T02:23:51.147Z,24.85
2022-11-15T02:24:21.151Z,24.85
2022-11-15T02:24:51.149Z,24.85
2022-11-15T02:25:21.115Z,24.84
2022-11-15T02:25:51.091Z,24.84
2022-11-15T02:26:21.058Z,24.84
2022-11-15T02:26:51.020Z,24.82
2022-11-15T02:27:20.990Z,24.79
2022-11-15T02:27:50.984Z,24.75
2022-11-15T02:28:20.955Z,24.75
2022-11-15T02:28:50.928Z,24.78
2022-11-15T02:29:20.918Z,24.76
2022-11-15T02:29:50.883Z,24.76
2022-11-15T02:30:20.863Z,24.81
2022-11-15T02:30:50.835Z,24.82
2022-11-15T02:31:20.808Z,24.81
2022-11-15T02:31:50.781Z,24.82
2022-11-15T02:32:20.755Z,24.84
2022-11-15T02:32:50.718Z,24.85
2022-11-15T02:33:20.688Z,24.81
2022-11-15T02:33:50.663Z,24.81
2022-11-15T02:34:20.640Z,24.81
2022-11-15T02:34:50.619Z,24.79
2022-11-15T02:35:20.593Z,24.78
2022-11-15T02:35:50.595Z,24.81
2022-11-15T02:36:20.569Z,24.79
2022-11-15T02:36:50.548Z,24.84
2022-11-15T02:37:20.507Z,24.81
2022-11-15T02:37:50.481Z,24.85
2022-11-15T02:38:20.454Z,24.89
2022-11-15T02:38:50.427Z,24.86
2022-11-15T02:39:20.427Z,24.89
2022-11-15T02:39:50.392Z,24.89
2022-11-15T02:40:20.370Z,24.84
2022-11-15T02:40:50.346Z,24.85
2022-11-15T02:41:20.316Z,24.84
2022-11-15T02:41:50.305Z,24.85
2022-11-15T02:42:20.307Z,24.85
2022-11-15T02:42:50.270Z,24.86
2022-11-15T02:43:20.226Z,24.86
2022-11-15T02:43:50.188Z,24.84
2022-11-15T02:44:20.158Z,24.85
2022-11-15T02:44:50.153Z,24.82
2022-11-15T02:45:20.120Z,24.81
2022-11-15T02:45:50.094Z,24.82
2022-11-15T02:46:20.065Z,24.84
2022-11-15T02:46:50.038Z,24.84
2022-11-15T02:47:20.025Z,24.85
2022-11-15T02:47:50.000Z,24.89
2022-11-15T02:48:19.972Z,24.85
2022-11-15T02:48:49.984Z,24.84
2022-11-15T02:49:19.976Z,24.82
2022-11-15T02:49:49.952Z,24.81
2022-11-15T02:50:19.965Z,24.79
2022-11-15T02:50:49.940Z,24.81
2022-11-15T02:51:19.911Z,24.81
2022-11-15T02:51:49.893Z,24.82
2022-11-15T02:52:19.877Z,24.81
2022-11-15T02:52:49.842Z,24.79
2022-11-15T02:53:19.808Z,24.79
2022-11-15T02:53:49.780Z,24.79
2022-11-15T02:54:19.754Z,24.81
2022-11-15T02:54:49.726Z,24.81
2022-11-15T02:55:19.717Z,24.78
2022-11-15T02:55:49.695Z,24.81
2022-11-15T02:56:19.661Z,24.81
2022-11-15T02:56:49.633Z,24.79
2022-11-15T02:57:19.608Z,24.78
2022-11-15T02:57:49.569Z,24.79
2022-11-15T02:58:19.537Z,24.78
2022-11-15T02:58:49.503Z,24.76
2022-11-15T02:59:19.475Z,24.71
2022-11-15T02:59:49.449Z,24.71
2022-11-15T03:00:19.418Z,24.75
2022-11-15T03:00:49.409Z,24.76
2022-11-15T03:01:19.496Z,24.74
2022-11-15T03:01:49.519Z,24.74
2022-11-15T03:02:19.499Z,24.74
2022-11-15T03:02:49.467Z,24.74
2022-11-15T03:03:19.438Z,24.66
2022-11-15T03:03:49.456Z,24.70
2022-11-15T03:04:19.434Z,24.75
2022-11-15T03:04:49.407Z,24.79
2022-11-15T03:05:19.381Z,24.79
2022-11-15T03:05:49.376Z,24.85
2022-11-15T03:06:19.359Z,24.86
2022-11-15T03:06:49.449Z,24.84
2022-11-15T03:07:19.486Z,24.79
2022-11-15T03:07:49.508Z,24.79
2022-11-15T03:08:19.481Z,24.82
2022-11-15T03:08:49.461Z,24.81
2022-11-15T03:09:19.423Z,24.78
2022-11-15T03:09:49.438Z,24.81
2022-11-15T03:10:19.406Z,24.81
2022-11-15T03:10:49.373Z,24.81
2022-11-15T03:11:19.369Z,24.85
2022-11-15T03:11:49.330Z,24.85
2022-11-15T03:12:19.293Z,24.84
2022-11-15T03:12:49.270Z,24.81
2022-11-15T03:13:19.246Z,24.78
2022-11-15T03:13:49.212Z,24.79
2022-11-15T03:14:19.183Z,24.78
2022-11-15T03:14:49.178Z,24.78
2022-11-15T03:15:19.156Z,24.76
2022-11-15T03:15:49.139Z,24.76
2022-11-15T03:16:19.116Z,24.76
2022-11-15T03:16:49.088Z,24.76
2022-11-15T03:17:19.077Z,24.76
2022-11-15T03:17:49.070Z,24.74
2022-11-15T03:18:19.090Z,24.74
2022-11-15T03:18:49.065Z,24.66
2022-11-15T03:19:19.037Z,24.66
2022-11-15T03:19:49.012Z,24.70
2022-11-15T03:20:19.002Z,24.70
2022-11-15T03:20:48.964Z,24.71
2022-11-15T03:21:18.976Z,24.78
2022-11-15T03:21:48.934Z,24.81
2022-11-15T03:22:18.939Z,24.82
2022-11-15T03:22:48.933Z,24.81
2022-11-15T03:23:18.892Z,24.82
2022-11-15T03:23:48.862Z,24.78
2022-11-15T03:24:23.264Z,24.74
2022-11-15T03:24:53.754Z,24.71
2022-11-15T03:25:23.732Z,24.71
2022-11-15T03:25:53.696Z,24.70
2022-11-15T03:26:23.681Z,24.74
2022-11-15T03:26:53.690Z,24.76
2022-11-15T03:27:23.661Z,24.78
2022-11-15T03:27:53.625Z,24.81
2022-11-15T03:28:23.610Z,24.81
2022-11-15T03:28:53.580Z,24.79
2022-11-15T03:29:23.554Z,24.82
2022-11-15T03:29:53.528Z,24.79
2022-11-15T03:30:23.524Z,24.79
2022-11-15T03:30:53.483Z,24.78
2022-11-15T03:31:23.461Z,24.78
2022-11-15T03:31:53.462Z,24.85
2022-11-15T03:32:23.424Z,24.84
2022-11-15T03:32:53.386Z,24.89
2022-11-15T03:33:23.358Z,24.84
2022-11-15T03:33:53.350Z,24.86
2022-11-15T03:34:23.315Z,24.89
2022-11-15T03:34:53.276Z,24.89
2022-11-15T03:35:23.263Z,24.84
2022-11-15T03:35:53.225Z,24.86
2022-11-15T03:36:23.245Z,24.85
2022-11-15T03:36:53.213Z,24.84
2022-11-15T03:37:23.190Z,24.79
2022-11-15T03:37:53.237Z,24.79
2022-11-15T03:38:23.231Z,24.78
2022-11-15T03:38:53.197Z,24.82
2022-11-15T03:39:23.173Z,24.82
2022-11-15T03:39:53.134Z,24.81
2022-11-15T03:40:23.106Z,24.82
2022-11-15T03:40:53.071Z,24.84
2022-11-15T03:41:23.059Z,24.85
2022-11-15T03:41:53.032Z,24.84
2022-11-15T03:42:23.004Z,24.89
2022-11-15T03:42:52.990Z,24.86
2022-11-15T03:43:22.950Z,24.90
2022-11-15T03:43:52.929Z,24.85
2022-11-15T03:44:22.904Z,24.84
2022-11-15T03:44:52.871Z,24.84
2022-11-15T03:45:22.861Z,24.81
2022-11-15T03:45:52.833Z,24.76
2022-11-15T03:46:22.806Z,24.78
2022-11-15T03:46:52.785Z,24.79
2022-11-15T03:47:22.746Z,24.78
2022-11-15T03:47:52.722Z,24.75
2022-11-15T03:48:22.681Z,24.76
2022-11-15T03:48:52.659Z,24.76
2022-11-15T03:49:22.628Z,24.75
2022-11-15T03:49:52.603Z,24.78
2022-11-15T03:50:22.574Z,24.76
2022-11-15T03:50:52.533Z,24.78
2022-11-15T03:51:22.500Z,24.76
2022-11-15T03:51:52.516Z,24.76
2022-11-15T03:52:22.479Z,24.76
2022-11-15T03:52:52.476Z,24.75
2022-11-15T03:53:22.449Z,24.74
2022-11-15T03:53:52.414Z,24.75
2022-11-15T03:54:22.643Z,24.75
2022-11-15T03:54:52.613Z,24.76
2022-11-15T03:55:22.581Z,24.75
2022-11-15T03:55:52.586Z,24.75
2022-11-15T03:56:22.589Z,24.74
2022-11-15T03:56:52.610Z,24.75
2022-11-15T03:57:22.587Z,24.81
2022-11-15T03:57:52.574Z,24.85
2022-11-15T03:58:22.562Z,24.85
2022-11-15T03:58:52.526Z,24.86
2022-11-15T03:59:22.499Z,24.85
2022-11-15T03:59:52.464Z,24.84
2022-11-15T04:00:22.435Z,24.82
2022-11-15T04:00:52.556Z,24.78
2022-11-15T04:01:22.598Z,24.75
2022-11-15T04:01:52.637Z,24.75
2022-11-15T04:02:22.629Z,24.75
2022-11-15T04:02:52.616Z,24.75
2022-11-15T04:03:22.588Z,24.76
2022-11-15T04:03:52.549Z,24.76
2022-11-15T04:04:22.510Z,24.79
2022-11-15T04:04:52.516Z,24.81
2022-11-15T04:05:22.506Z,24.81
2022-11-15T04:05:52.486Z,24.85
2022-11-15T04:06:22.453Z,24.82
2022-11-15T04:06:52.502Z,24.81
2022-11-15T04:07:22.727Z,24.79
2022-11-15T04:07:53.043Z,24.78
2022-11-15T04:08:23.177Z,24.76
2022-11-15T04:08:53.152Z,24.79
2022-11-15T04:09:23.125Z,24.79
2022-11-15T04:09:53.085Z,24.79
2022-11-15T04:10:23.062Z,24.78
2022-11-15T04:10:53.022Z,24.75
2022-11-15T04:11:22.991Z,24.71
2022-11-15T04:11:52.973Z,24.75
2022-11-15T04:12:22.947Z,24.76
2022-11-15T04:12:52.916Z,24.78
2022-11-15T04:13:22.874Z,24.79
2022-11-15T04:13:52.845Z,24.82
2022-11-15T04:14:22.807Z,24.81
2022-11-15T04:14:52.780Z,24.82
2022-11-15T04:15:22.751Z,24.82
2022-11-15T04:15:52.727Z,24.82
2022-11-15T04:16:22.710Z,24.78
2022-11-15T04:16:52.708Z,24.75
2022-11-15T04:17:22.672Z,24.65
2022-11-15T04:17:52.689Z,24.66
2022-11-15T04:18:22.660Z,24.65
2022-11-15T04:18:52.634Z,24.65
2022-11-15T04:19:22.608Z,24.66
2022-11-15T04:19:52.580Z,24.68
2022-11-15T04:20:22.554Z,24.70
2022-11-15T04:20:52.558Z,24.70
2022-11-15T04:21:22.528Z,24.68
2022-11-15T04:21:52.529Z,24.70
2022-11-15T04:22:22.501Z,24.70
2022-11-15T04:22:52.502Z,24.68
2022-11-15T04:23:22.471Z,24.70
2022-11-15T04:23:52.469Z,24.74
2022-11-15T04:24:22.440Z,24.75
2022-11-15T04:24:52.423Z,24.71
2022-11-15T04:25:24.668Z,24.68
2022-11-15T04:25:57.230Z,24.66
2022-11-15T04:26:27.192Z,24.66
2022-11-15T04:26:57.198Z,24.66
2022-11-15T04:27:27.160Z,24.65
2022-11-15T04:27:57.160Z,24.63
2022-11-15T04:28:27.126Z,24.62
2022-11-15T04:28:57.108Z,24.58
2022-11-15T04:29:27.101Z,24.52
2022-11-15T04:29:57.074Z,24.51
2022-11-15T04:30:27.051Z,24.51
2022-11-15T04:30:57.023Z,24.52
2022-11-15T04:31:26.997Z,24.51
2022-11-15T04:31:57.144Z,24.52
2022-11-15T04:32:27.114Z,24.56
2022-11-15T04:32:57.074Z,24.60
2022-11-15T04:33:27.061Z,24.63
2022-11-15T04:33:57.041Z,24.63
2022-11-15T04:34:27.007Z,24.58
2022-11-15T04:34:56.981Z,24.58
2022-11-15T04:35:26.981Z,24.56
2022-11-15T04:35:56.952Z,24.58
2022-11-15T04:36:26.932Z,24.59
2022-11-15T04:36:56.908Z,24.60
2022-11-15T04:37:26.884Z,24.62
2022-11-15T04:37:56.880Z,24.63
2022-11-15T04:38:26.866Z,24.66
2022-11-15T04:38:56.842Z,24.66
2022-11-15T04:39:26.805Z,24.63
2022-11-15T04:39:56.788Z,24.63
2022-11-15T04:40:26.767Z,24.63
2022-11-15T04:40:56.748Z,24.60
2022-11-15T04:41:26.719Z,24.59
2022-11-15T04:41:56.684Z,24.56
2022-11-15T04:42:26.665Z,24.59
2022-11-15T04:43:02.342Z,24.58
2022-11-15T04:43:32.137Z,24.56
2022-11-15T04:44:02.428Z,24.60
2022-11-15T04:44:32.386Z,24.65
2022-11-15T04:45:02.348Z,24.63
2022-11-15T04:45:32.319Z,24.63
2022-11-15T04:46:02.294Z,24.62
2022-11-15T04:46:32.285Z,24.56
2022-11-15T04:47:02.250Z,24.55
2022-11-15T04:47:32.235Z,24.59
2022-11-15T04:48:02.208Z,24.60
2022-11-15T04:48:32.195Z,24.59
2022-11-15T04:49:02.166Z,24.59
2022-11-15T04:49:32.160Z,24.55
2022-11-15T04:50:02.132Z,24.53
2022-11-15T04:50:32.097Z,24.48
2022-11-15T04:51:02.055Z,24.48
2022-11-15T04:51:32.076Z,24.48
2022-11-15T04:52:02.083Z,24.51
2022-11-15T04:52:32.049Z,24.51
2022-11-15T04:53:02.046Z,24.52
2022-11-15T04:53:32.308Z,24.51
2022-11-15T04:54:02.521Z,24.52
2022-11-15T04:54:32.491Z,24.51
2022-11-15T04:55:07.999Z,24.51
2022-11-15T04:55:37.383Z,24.55
2022-11-15T04:56:07.347Z,24.55
2022-11-15T04:56:37.318Z,24.58
2022-11-15T04:57:07.298Z,24.59
2022-11-15T04:57:37.266Z,24.55
2022-11-15T04:58:07.237Z,24.53
2022-11-15T04:58:37.261Z,24.55
2022-11-15T04:59:07.239Z,24.56
2022-11-15T04:59:37.252Z,24.55
2022-11-15T05:00:07.256Z,24.55
2022-11-15T05:00:37.457Z,24.56
2022-11-15T05:01:07.518Z,24.58
2022-11-15T05:01:40.780Z,24.58
2022-11-15T05:02:12.452Z,24.63
2022-11-15T05:02:42.413Z,24.60
2022-11-15T05:03:12.392Z,24.56
2022-11-15T05:03:42.420Z,24.53
2022-11-15T05:04:12.395Z,24.51
2022-11-15T05:04:42.405Z,24.47
2022-11-15T05:05:12.407Z,24.48
2022-11-15T05:05:42.379Z,24.45
2022-11-15T05:06:12.352Z,24.43
2022-11-15T05:06:42.338Z,24.44
2022-11-15T05:07:12.371Z,24.48
2022-11-15T05:07:42.390Z,24.47
2022-11-15T05:08:12.379Z,24.45
2022-11-15T05:08:42.349Z,24.43
2022-11-15T05:09:12.311Z,24.45
2022-11-15T05:09:42.289Z,24.45
2022-11-15T05:10:12.262Z,24.45
2022-11-15T05:10:42.226Z,24.48
2022-11-15T05:11:12.209Z,24.52
2022-11-15T05:11:42.176Z,24.52
2022-11-15T05:12:12.150Z,24.51
2022-11-15T05:12:42.158Z,24.48
2022-11-15T05:13:12.129Z,24.47
2022-11-15T05:13:42.125Z,24.41
2022-11-15T05:14:12.083Z,24.41
2022-11-15T05:14:42.063Z,24.41
2022-11-15T05:15:12.027Z,24.44
2022-11-15T05:15:41.999Z,24.44
2022-11-15T05:16:11.961Z,24.47
2022-11-15T05:16:41.954Z,24.48
2022-11-15T05:17:11.926Z,24.47
2022-11-15T05:17:41.889Z,24.47
2022-11-15T05:18:11.853Z,24.47
2022-11-15T05:18:41.827Z,24.45
2022-11-15T05:19:11.816Z,24.51
2022-11-15T05:19:41.817Z,24.47
2022-11-15T05:20:11.777Z,24.51
2022-11-15T05:20:41.761Z,24.51
2022-11-15T05:21:11.728Z,24.47
2022-11-15T05:21:41.704Z,24.44
2022-11-15T05:22:11.725Z,24.43
2022-11-15T05:22:41.693Z,24.41
2022-11-15T05:23:11.665Z,24.40
2022-11-15T05:23:41.702Z,24.34
2022-11-15T05:24:11.669Z,24.33
2022-11-15T05:24:41.642Z,24.31
2022-11-15T05:25:11.640Z,24.36
2022-11-15T05:25:41.602Z,24.36
2022-11-15T05:26:11.565Z,24.36
2022-11-15T05:26:41.532Z,24.34
2022-11-15T05:27:11.555Z,24.36
2022-11-15T05:27:41.542Z,24.38
2022-11-15T05:28:11.516Z,24.40
2022-11-15T05:28:41.488Z,24.40
2022-11-15T05:29:11.460Z,24.40
2022-11-15T05:29:41.433Z,24.43
2022-11-15T05:30:11.421Z,24.47
2022-11-15T05:30:41.383Z,24.51
2022-11-15T05:31:11.353Z,24.47
2022-11-15T05:31:41.353Z,24.38
2022-11-15T05:32:11.376Z,24.40
2022-11-15T05:32:41.391Z,24.40
2022-11-15T05:33:11.358Z,24.43
2022-11-15T05:33:41.336Z,24.41
2022-11-15T05:34:11.301Z,24.41
2022-11-15T05:34:41.270Z,24.41
2022-11-15T05:35:11.265Z,24.43
2022-11-15T05:35:41.248Z,24.43
2022-11-15T05:36:11.211Z,24.43
2022-11-15T05:36:41.172Z,24.45
2022-11-15T05:37:11.148Z,24.47
2022-11-15T05:37:41.123Z,24.45
2022-11-15T05:38:11.087Z,24.40
2022-11-15T05:38:41.066Z,24.38
2022-11-15T05:39:11.075Z,24.38
2022-11-15T05:39:41.039Z,24.41
2022-11-15T05:40:11.008Z,24.45
2022-11-15T05:40:41.347Z,24.48
2022-11-15T05:41:11.324Z,24.52
2022-11-15T05:41:41.305Z,24.52
2022-11-15T05:42:11.294Z,24.55
2022-11-15T05:42:41.323Z,24.53
2022-11-15T05:43:11.295Z,24.53
2022-11-15T05:43:41.275Z,24.55
2022-11-15T05:44:11.265Z,24.59
2022-11-15T05:44:41.229Z,24.62
2022-11-15T05:45:11.193Z,24.65
2022-11-15T05:45:41.171Z,24.68
2022-11-15T05:46:11.144Z,24.71
2022-11-15T05:46:41.119Z,24.71
2022-11-15T05:47:11.104Z,24.68
2022-11-15T05:47:41.083Z,24.65
2022-11-15T05:48:11.077Z,24.63
2022-11-15T05:48:41.052Z,24.68
2022-11-15T05:49:11.032Z,24.70
2022-11-15T05:49:40.999Z,24.74
2022-11-15T05:50:10.971Z,24.78
2022-11-15T05:50:40.951Z,24.76
2022-11-15T05:51:10.908Z,24.74
2022-11-15T05:51:40.897Z,24.76
2022-11-15T05:52:10.872Z,24.79
2022-11-15T05:52:40.844Z,24.81
2022-11-15T05:53:10.821Z,24.78
2022-11-15T05:53:40.790Z,24.76
2022-11-15T05:54:10.755Z,24.75
2022-11-15T05:54:40.755Z,24.78
2022-11-15T05:55:10.719Z,24.84
2022-11-15T05:55:40.689Z,24.81
2022-11-15T05:56:10.659Z,24.82
2022-11-15T05:56:40.623Z,24.86
2022-11-15T05:57:10.615Z,24.84
2022-11-15T05:57:40.579Z,24.79
2022-11-15T05:58:10.551Z,24.79
2022-11-15T05:58:40.526Z,24.76
2022-11-15T05:59:10.547Z,24.75
2022-11-15T05:59:40.509Z,24.71
2022-11-15T06:00:10.474Z,24.74
2022-11-15T06:00:40.446Z,24.76
2022-11-15T06:01:10.421Z,24.78
2022-11-15T06:01:40.502Z,24.76
2022-11-15T06:02:10.683Z,24.75
2022-11-15T06:02:40.677Z,24.74
2022-11-15T06:03:10.653Z,24.74
2022-11-15T06:03:40.623Z,24.70
2022-11-15T06:04:10.596Z,24.68
2022-11-15T06:04:40.574Z,24.68
2022-11-15T06:05:10.584Z,24.78
2022-11-15T06:05:40.558Z,24.82
2022-11-15T06:06:16.092Z,24.81
2022-11-15T06:06:45.581Z,24.79
2022-11-15T06:07:15.707Z,24.81
2022-11-15T06:07:45.758Z,24.81
2022-11-15T06:08:15.731Z,24.84
2022-11-15T06:08:45.705Z,24.84
2022-11-15T06:09:15.678Z,24.81
2022-11-15T06:09:45.664Z,24.82
2022-11-15T06:10:15.622Z,24.89
2022-11-15T06:10:45.614Z,24.90
2022-11-15T06:11:15.584Z,24.97
2022-11-15T06:11:45.553Z,24.97
2022-11-15T06:12:15.518Z,24.94
2022-11-15T06:12:45.502Z,24.93
2022-11-15T06:13:15.533Z,24.90
2022-11-15T06:13:45.506Z,24.90
2022-11-15T06:14:15.475Z,24.89
2022-11-15T06:14:45.442Z,24.90
2022-11-15T06:15:15.403Z,24.94
2022-11-15T06:15:45.360Z,24.93
2022-11-15T06:16:15.378Z,24.86
2022-11-15T06:16:45.342Z,24.90
2022-11-15T06:17:15.323Z,24.93
2022-11-15T06:17:45.313Z,24.93
2022-11-15T06:18:15.272Z,24.96
2022-11-15T06:18:45.288Z,24.96
2022-11-15T06:19:15.260Z,25.00
2022-11-15T06:19:45.227Z,25.03
2022-11-15T06:20:15.198Z,25.04
2022-11-15T06:20:45.161Z,25.01
2022-11-15T06:21:15.126Z,25.03
2022-11-15T06:21:45.097Z,25.04
2022-11-15T06:22:15.103Z,25.06
2022-11-15T06:22:45.079Z,25.08
2022-11-15T06:23:15.047Z,25.09
2022-11-15T06:23:45.019Z,25.08
2022-11-15T06:24:14.981Z,25.04
2022-11-15T06:24:44.960Z,25.03
2022-11-15T06:25:14.959Z,25.01
2022-11-15T06:25:44.929Z,25.03
2022-11-15T06:26:14.895Z,25.03
2022-11-15T06:26:44.876Z,25.04
2022-11-15T06:27:14.843Z,25.04